Time;durP1;ratioP1;P1;durP2;ratioP2;P2;SDS_P1;SDS_P2;PMS_P1;PMS_P2;Temp;Humidity;BMP_temperature;BMP_pressure;BME280_temperature;BME280_humidity;BME280_pressure;Samples;Min_cycle;Max_cycle;Signal;HPM_P1;HPM_P2
2021/04/23 00:00:16;;;;;;;5.88;3.08;;;8.50;60.40;;;;;;5093432;28;20237;-72
2021/04/23 00:02:43;;;;;;;2.88;2.65;;;8.50;61.00;;;;;;5094754;28;20223;-72
2021/04/23 00:05:10;;;;;;;7.55;2.90;;;8.50;60.70;;;;;;5094747;28;20206;-71
2021/04/23 00:07:37;;;;;;;4.55;2.92;;;8.60;61.60;;;;;;5094398;28;20253;-71
2021/04/23 00:10:07;;;;;;;3.90;2.70;;;8.60;61.60;;;;;;5094490;28;20289;-73
2021/04/23 00:12:33;;;;;;;4.88;3.13;;;8.60;62.00;;;;;;5094298;28;20309;-72
2021/04/23 00:14:59;;;;;;;5.10;2.60;;;8.50;61.50;;;;;;5094565;28;20274;-70
2021/04/23 00:17:26;;;;;;;4.15;3.05;;;8.40;62.50;;;;;;5094340;28;20298;-72
2021/04/23 00:19:52;;;;;;;6.18;3.25;;;8.50;63.10;;;;;;5094345;28;20198;-72
2021/04/23 00:22:19;;;;;;;4.90;3.15;;;8.50;62.90;;;;;;5094168;28;20222;-71
2021/04/23 00:24:46;;;;;;;5.97;2.53;;;8.50;63.40;;;;;;5094227;28;20293;-71
2021/04/23 00:27:12;;;;;;;5.57;2.97;;;8.40;63.00;;;;;;5093868;28;20676;-71
2021/04/23 00:29:39;;;;;;;10.25;2.92;;;8.40;63.30;;;;;;5093989;28;20248;-71
2021/04/23 00:34:51;;;;;;;4.68;3.13;;;8.20;64.40;;;;;;5094118;28;20224;-71
2021/04/23 00:37:17;;;;;;;6.57;3.30;;;8.10;64.80;;;;;;5093819;28;20719;-72
2021/04/23 00:39:44;;;;;;;4.88;2.90;;;8.00;64.30;;;;;;5093737;28;20288;-72
2021/04/23 00:42:11;;;;;;;8.68;3.30;;;8.00;65.00;;;;;;5094088;28;20317;-72
2021/04/23 00:44:38;;;;;;;5.38;2.60;;;7.90;66.00;;;;;;5094015;28;20202;-71
2021/04/23 00:47:04;;;;;;;4.75;2.80;;;7.90;66.10;;;;;;5093775;28;20202;-71
2021/04/23 00:49:30;;;;;;;6.00;2.60;;;8.00;66.20;;;;;;5093542;28;20233;-72
2021/04/23 00:52:01;;;;;;;7.50;3.63;;;8.00;66.90;;;;;;5093536;28;20226;-72
2021/04/23 00:54:30;;;;;;;5.13;3.45;;;8.00;67.30;;;;;;5093586;28;20288;-73
2021/04/23 00:56:57;;;;;;;5.10;3.08;;;7.90;67.20;;;;;;5093535;28;20218;-73
2021/04/23 00:59:25;;;;;;;5.20;3.10;;;7.90;67.20;;;;;;5093472;28;20209;-71
2021/04/23 01:01:56;;;;;;;7.53;3.45;;;7.80;67.30;;;;;;5093516;28;20226;-73
2021/04/23 01:04:22;;;;;;;7.22;3.78;;;7.80;67.50;;;;;;5093468;28;20313;-73
2021/04/23 01:06:49;;;;;;;6.82;3.45;;;7.80;67.50;;;;;;5093225;28;20797;-73
2021/04/23 01:09:19;;;;;;;5.57;3.83;;;7.80;67.80;;;;;;5093389;28;20293;-74
2021/04/23 01:11:47;;;;;;;6.07;3.47;;;7.80;68.00;;;;;;5093232;28;20313;-74
2021/04/23 01:14:13;;;;;;;5.93;3.33;;;7.70;68.70;;;;;;5093245;28;20221;-71
2021/04/23 01:16:41;;;;;;;4.38;3.25;;;7.70;69.20;;;;;;5093118;28;20633;-72
2021/04/23 01:19:11;;;;;;;10.57;3.80;;;7.80;70.00;;;;;;5093021;28;20198;-70
2021/04/23 01:21:40;;;;;;;5.55;3.58;;;7.70;69.70;;;;;;5093353;28;20193;-71
2021/04/23 01:24:10;;;;;;;5.85;3.67;;;7.60;70.20;;;;;;5093265;28;20312;-72
2021/04/23 01:26:39;;;;;;;6.60;3.67;;;7.60;71.00;;;;;;5092785;28;20202;-71
2021/04/23 01:29:07;;;;;;;9.55;4.15;;;7.60;71.80;;;;;;5092719;28;20213;-72
2021/04/23 01:31:38;;;;;;;5.63;4.05;;;7.50;72.40;;;;;;5092796;28;20216;-71
2021/04/23 01:34:10;;;;;;;6.20;3.80;;;7.50;73.30;;;;;;5092723;28;20228;-71
2021/04/23 01:36:38;;;;;;;6.18;4.13;;;7.40;73.80;;;;;;5092701;28;20343;-71
2021/04/23 01:39:07;;;;;;;6.93;3.65;;;7.40;74.60;;;;;;5092823;28;20204;-71
2021/04/23 01:41:38;;;;;;;4.85;3.00;;;7.30;75.10;;;;;;5092720;28;20205;-71
2021/04/23 01:44:05;;;;;;;7.80;4.15;;;7.30;75.60;;;;;;5092798;28;20659;-71
2021/04/23 01:46:33;;;;;;;5.32;3.70;;;7.20;75.90;;;;;;5092423;28;20305;-69
2021/04/23 01:49:00;;;;;;;6.55;3.35;;;7.20;76.80;;;;;;5092412;28;20664;-74
2021/04/23 01:51:28;;;;;;;5.20;3.97;;;7.20;76.70;;;;;;5092616;28;20212;-74
2021/04/23 01:53:55;;;;;;;8.00;4.28;;;7.20;76.80;;;;;;5092608;28;20222;-76
2021/04/23 01:56:22;;;;;;;7.07;3.40;;;7.10;77.40;;;;;;5092278;28;20305;-74
2021/04/23 01:58:48;;;;;;;5.10;3.47;;;7.10;78.00;;;;;;5092313;28;20206;-75
2021/04/23 02:01:14;;;;;;;6.43;4.13;;;7.10;78.10;;;;;;5092417;28;20212;-75
2021/04/23 02:03:42;;;;;;;5.57;3.67;;;7.10;78.10;;;;;;5092514;28;20309;-71
2021/04/23 02:06:09;;;;;;;5.75;4.10;;;7.10;78.60;;;;;;5092364;28;20298;-71
2021/04/23 02:08:35;;;;;;;7.68;3.85;;;7.00;78.90;;;;;;5092477;28;20644;-72
2021/04/23 02:11:13;;;;;;;5.35;3.83;;;6.90;78.80;;;;;;5092235;28;20335;-70
2021/04/23 02:13:41;;;;;;;4.60;3.38;;;6.90;78.50;;;;;;5092079;28;20230;-71
2021/04/23 02:16:10;;;;;;;4.90;3.75;;;6.90;78.60;;;;;;5092405;28;20198;-74
2021/04/23 02:18:37;;;;;;;8.07;3.92;;;6.80;79.20;;;;;;5092317;28;20283;-75
2021/04/23 02:21:04;;;;;;;6.30;3.92;;;6.80;80.20;;;;;;5092350;28;20205;-74
2021/04/23 02:23:31;;;;;;;6.85;3.90;;;6.80;81.10;;;;;;5091633;28;20304;-72
2021/04/23 02:25:57;;;;;;;4.75;3.75;;;6.90;80.70;;;;;;5092041;28;20206;-72
2021/04/23 02:28:25;;;;;;;7.32;3.72;;;6.90;80.70;;;;;;5092026;28;20202;-72
2021/04/23 02:30:54;;;;;;;4.95;3.63;;;6.80;80.70;;;;;;5092313;28;20681;-72
2021/04/23 02:33:22;;;;;;;6.82;3.80;;;6.80;80.60;;;;;;5091876;28;20711;-76
2021/04/23 02:35:51;;;;;;;6.10;3.75;;;6.90;80.80;;;;;;5091868;28;20301;-77
2021/04/23 02:38:18;;;;;;;7.00;3.80;;;6.80;80.90;;;;;;5091869;28;20729;-76
2021/04/23 02:40:46;;;;;;;5.55;3.47;;;6.80;81.00;;;;;;5092480;28;20854;-75
2021/04/23 02:43:14;;;;;;;6.78;3.97;;;6.80;81.30;;;;;;5092417;28;20240;-78
2021/04/23 02:45:42;;;;;;;7.70;3.35;;;6.80;81.50;;;;;;5092351;28;20297;-72
2021/04/23 02:48:11;;;;;;;4.63;3.22;;;6.80;81.50;;;;;;5095697;28;20294;-76
2021/04/23 02:50:41;;;;;;;6.57;3.33;;;6.90;81.00;;;;;;5096266;28;20255;-71
2021/04/23 02:53:08;;;;;;;9.70;4.25;;;6.90;80.90;;;;;;5093880;28;20267;-73
2021/04/23 02:55:35;;;;;;;6.32;3.42;;;7.00;81.00;;;;;;5094693;28;20662;-73
2021/04/23 02:58:04;;;;;;;9.30;4.32;;;7.00;81.60;;;;;;5093948;28;20289;-74
2021/04/23 03:00:34;;;;;;;6.38;3.90;;;6.90;82.20;;;;;;5094049;28;20317;-78
2021/04/23 03:03:02;;;;;;;8.40;3.60;;;6.90;83.20;;;;;;5094881;28;20228;-74
2021/04/23 03:05:29;;;;;;;8.80;3.72;;;6.90;83.50;;;;;;5094347;28;20279;-74
2021/04/23 03:07:58;;;;;;;9.30;3.70;;;7.00;83.70;;;;;;5094335;28;20285;-73
2021/04/23 03:10:27;;;;;;;6.05;3.35;;;7.00;84.10;;;;;;5094866;28;20624;-73
2021/04/23 03:12:53;;;;;;;5.88;3.75;;;7.00;84.10;;;;;;5094693;28;20226;-73
2021/04/23 03:15:21;;;;;;;7.50;4.10;;;7.00;84.50;;;;;;5093679;28;20199;-72
2021/04/23 03:17:48;;;;;;;8.45;3.50;;;7.00;85.10;;;;;;5094536;28;20198;-73
2021/04/23 03:20:19;;;;;;;5.25;3.70;;;6.90;84.90;;;;;;5093903;28;21047;-73
2021/04/23 03:22:45;;;;;;;6.82;3.70;;;6.90;85.10;;;;;;5094139;28;20308;-73
2021/04/23 03:25:13;;;;;;;7.95;4.00;;;7.00;85.90;;;;;;5093515;28;20206;-73
2021/04/23 03:27:40;;;;;;;4.57;3.63;;;6.90;86.70;;;;;;5093478;28;20209;-73
2021/04/23 03:30:12;;;;;;;4.53;3.60;;;6.80;86.90;;;;;;5093727;28;20259;-73
2021/04/23 03:32:39;;;;;;;6.20;3.90;;;6.70;87.10;;;;;;5093403;28;20278;-73
2021/04/23 03:35:07;;;;;;;6.85;3.45;;;6.70;87.60;;;;;;5095631;28;20359;-73
2021/04/23 03:37:34;;;;;;;9.10;4.13;;;6.70;87.40;;;;;;5096971;28;20291;-73
2021/04/23 03:40:00;;;;;;;9.15;3.75;;;6.80;87.50;;;;;;5097029;28;20243;-73
2021/04/23 03:42:27;;;;;;;7.43;3.80;;;6.70;87.60;;;;;;5097139;28;20271;-73
2021/04/23 03:44:54;;;;;;;4.72;3.85;;;6.70;88.10;;;;;;5096718;28;20209;-73
2021/04/23 03:47:21;;;;;;;6.60;3.90;;;6.70;89.20;;;;;;5096802;28;20209;-73
2021/04/23 03:49:47;;;;;;;6.07;4.30;;;6.70;89.90;;;;;;5097767;28;20213;-72
2021/04/23 03:52:14;;;;;;;9.95;4.88;;;6.60;90.20;;;;;;5097653;28;20590;-73
2021/04/23 03:54:41;;;;;;;6.80;4.65;;;6.60;90.40;;;;;;5097208;28;20206;-72
2021/04/23 03:57:08;;;;;;;11.10;4.30;;;6.50;90.60;;;;;;5098472;28;20210;-73
2021/04/23 03:59:34;;;;;;;7.75;4.25;;;6.60;90.90;;;;;;5097740;28;20202;-73
2021/04/23 04:02:00;;;;;;;6.82;3.97;;;6.60;90.90;;;;;;5096668;28;20529;-73
2021/04/23 04:04:27;;;;;;;7.28;4.13;;;6.60;91.00;;;;;;5096949;28;20289;-73
2021/04/23 04:06:53;;;;;;;9.63;3.63;;;6.60;91.00;;;;;;5098289;28;20668;-73
2021/04/23 04:09:20;;;;;;;8.32;4.22;;;6.60;91.10;;;;;;5098007;28;20213;-73
2021/04/23 04:11:47;;;;;;;6.43;3.70;;;6.70;91.30;;;;;;5097942;28;20222;-73
2021/04/23 04:14:14;;;;;;;10.80;3.85;;;6.60;91.30;;;;;;5097847;28;20249;-73
2021/04/23 04:16:40;;;;;;;10.13;4.47;;;6.50;91.50;;;;;;5097705;28;20237;-73
2021/04/23 04:19:07;;;;;;;9.90;4.18;;;6.40;91.70;;;;;;5097642;28;20294;-73
2021/04/23 04:21:34;;;;;;;7.80;4.13;;;6.50;91.80;;;;;;5098096;28;20202;-73
2021/04/23 04:24:01;;;;;;;6.00;4.03;;;6.40;91.90;;;;;;5098274;28;20628;-73
2021/04/23 04:26:28;;;;;;;20.30;4.55;;;6.40;92.00;;;;;;5097466;28;20225;-73
2021/04/23 04:28:55;;;;;;;5.50;3.85;;;6.30;92.30;;;;;;5097160;28;20736;-73
2021/04/23 04:31:21;;;;;;;6.82;4.60;;;6.20;92.30;;;;;;5097337;28;20198;-73
2021/04/23 04:33:49;;;;;;;5.05;3.75;;;6.20;92.60;;;;;;5047278;22;20313;-72
2021/04/23 04:36:16;;;;;;;9.07;4.82;;;6.20;92.70;;;;;;5036275;28;20204;-73
2021/04/23 04:38:42;;;;;;;7.07;4.30;;;6.20;93.20;;;;;;5037050;28;20295;-74
2021/04/23 04:41:08;;;;;;;7.35;4.15;;;6.10;93.10;;;;;;5036822;28;20298;-73
2021/04/23 04:43:35;;;;;;;10.48;5.30;;;6.10;93.30;;;;;;5036344;28;20259;-73
2021/04/23 04:46:03;;;;;;;8.13;4.78;;;6.10;93.30;;;;;;5036387;28;20195;-73
2021/04/23 04:48:29;;;;;;;11.02;4.43;;;6.10;93.30;;;;;;5036643;28;20558;-73
2021/04/23 04:50:57;;;;;;;8.40;3.97;;;6.20;93.50;;;;;;5036574;28;20206;-73
2021/04/23 04:53:25;;;;;;;7.30;3.95;;;6.20;93.80;;;;;;5036867;28;20232;-73
2021/04/23 04:55:53;;;;;;;5.72;4.07;;;6.20;94.00;;;;;;5036502;28;20271;-73
2021/04/23 04:58:22;;;;;;;6.18;4.40;;;6.20;94.10;;;;;;5036426;28;20617;-73
2021/04/23 05:00:48;;;;;;;7.20;3.65;;;6.20;94.00;;;;;;5035781;28;20694;-73
2021/04/23 05:03:16;;;;;;;15.23;4.00;;;6.30;94.10;;;;;;5036005;28;20361;-73
2021/04/23 05:05:43;;;;;;;4.78;3.85;;;6.20;93.90;;;;;;5036015;28;20204;-73
2021/04/23 05:08:11;;;;;;;7.47;4.68;;;6.30;94.10;;;;;;5036598;28;20565;-73
2021/04/23 05:10:38;;;;;;;6.70;3.80;;;6.40;93.80;;;;;;5035935;28;20299;-73
2021/04/23 05:13:04;;;;;;;6.47;3.75;;;6.20;94.40;;;;;;5036251;28;20224;-73
2021/04/23 05:15:31;;;;;;;7.65;4.63;;;5.90;95.30;;;;;;5036187;28;20295;-73
2021/04/23 05:17:58;;;;;;;6.25;4.45;;;5.80;96.00;;;;;;5036256;28;20240;-73
2021/04/23 05:20:25;;;;;;;9.63;4.93;;;5.70;96.90;;;;;;5035912;28;20210;-74
2021/04/23 05:22:52;;;;;;;9.15;4.35;;;5.70;96.70;;;;;;5036265;28;20224;-72
2021/04/23 05:25:21;;;;;;;8.25;4.43;;;5.70;97.00;;;;;;5035674;28;20550;-73
2021/04/23 05:27:47;;;;;;;8.00;4.72;;;5.70;97.50;;;;;;5035806;28;20268;-73
2021/04/23 05:30:16;;;;;;;6.55;4.47;;;5.50;98.00;;;;;;5035286;28;20688;-73
2021/04/23 05:32:43;;;;;;;8.45;5.38;;;5.50;98.50;;;;;;5035461;28;20314;-73
2021/04/23 05:35:11;;;;;;;9.35;5.05;;;5.40;98.80;;;;;;5035635;28;20306;-74
2021/04/23 05:37:39;;;;;;;7.13;4.53;;;5.50;99.10;;;;;;5036077;28;20258;-72
2021/04/23 05:40:08;;;;;;;11.43;5.43;;;5.60;99.00;;;;;;5035670;28;20206;-73
2021/04/23 05:42:35;;;;;;;7.90;4.90;;;5.80;98.40;;;;;;5034374;28;20311;-73
2021/04/23 05:45:01;;;;;;;9.15;5.38;;;6.00;97.80;;;;;;5034388;28;20741;-73
2021/04/23 05:47:27;;;;;;;8.00;5.50;;;6.00;97.50;;;;;;5034292;28;20650;-73
2021/04/23 05:49:54;;;;;;;6.00;4.72;;;6.00;97.60;;;;;;5034664;28;20565;-73
2021/04/23 05:52:20;;;;;;;8.43;5.72;;;6.00;97.30;;;;;;5034071;28;20426;-73
2021/04/23 05:54:47;;;;;;;10.88;5.93;;;6.00;97.30;;;;;;5034278;28;20314;-72
2021/04/23 05:57:13;;;;;;;8.38;5.40;;;6.20;97.50;;;;;;5033497;28;20240;-72
2021/04/23 05:59:40;;;;;;;12.15;5.63;;;6.30;96.70;;;;;;5033941;28;20250;-73
2021/04/23 06:02:06;;;;;;;9.75;6.40;;;6.60;96.30;;;;;;5034349;28;20724;-72
2021/04/23 06:04:32;;;;;;;11.48;5.75;;;6.70;95.90;;;;;;5034542;28;20203;-73
2021/04/23 06:06:59;;;;;;;8.02;5.63;;;6.60;95.30;;;;;;5033895;28;20243;-73
2021/04/23 06:09:25;;;;;;;11.45;6.85;;;6.60;95.30;;;;;;5034166;28;20214;-72
2021/04/23 06:11:52;;;;;;;10.25;7.28;;;6.40;95.70;;;;;;5034044;28;20316;-73
2021/04/23 06:14:22;;;;;;;11.30;6.75;;;6.30;96.30;;;;;;5034001;28;20227;-73
2021/04/23 06:16:48;;;;;;;29.98;9.90;;;6.30;96.70;;;;;;5033693;28;20208;-73
2021/04/23 06:19:15;;;;;;;13.35;7.75;;;6.30;96.50;;;;;;5033863;28;20204;-73
2021/04/23 06:21:41;;;;;;;14.65;8.27;;;6.30;96.70;;;;;;5033764;28;20204;-72
2021/04/23 06:24:08;;;;;;;14.63;7.60;;;6.40;96.50;;;;;;5034119;28;20277;-73
2021/04/23 06:26:34;;;;;;;10.30;6.78;;;6.40;96.50;;;;;;5033709;28;20741;-73
2021/04/23 06:29:01;;;;;;;10.70;6.45;;;6.50;96.60;;;;;;5034345;28;20196;-73
2021/04/23 06:31:28;;;;;;;11.50;6.80;;;6.50;96.00;;;;;;5034437;28;20669;-73
2021/04/23 06:33:54;;;;;;;10.93;7.35;;;6.50;95.10;;;;;;5033720;28;20248;-73
2021/04/23 06:36:21;;;;;;;11.32;6.95;;;6.50;95.80;;;;;;5033799;28;20287;-73
2021/04/23 06:38:48;;;;;;;14.80;7.00;;;6.50;95.20;;;;;;5034213;28;20361;-73
2021/04/23 06:41:15;;;;;;;12.95;6.53;;;6.50;95.60;;;;;;5033957;28;20646;-73
2021/04/23 06:43:43;;;;;;;11.50;7.32;;;6.60;95.90;;;;;;5033496;28;20283;-73
2021/04/23 06:46:10;;;;;;;13.65;7.10;;;6.80;95.70;;;;;;5033729;28;20208;-73
2021/04/23 06:48:37;;;;;;;11.38;6.95;;;6.90;95.40;;;;;;5033584;28;20734;-73
2021/04/23 06:51:04;;;;;;;12.98;6.97;;;7.00;94.50;;;;;;5033701;28;20199;-73
2021/04/23 06:53:31;;;;;;;12.20;7.53;;;7.30;94.90;;;;;;5033546;28;20227;-73
2021/04/23 06:55:58;;;;;;;11.68;8.18;;;7.40;94.40;;;;;;5033897;28;20240;-73
2021/04/23 06:58:24;;;;;;;11.10;7.35;;;7.50;93.30;;;;;;5034160;28;20628;-73
2021/04/23 07:00:50;;;;;;;13.52;7.05;;;7.40;93.90;;;;;;5034225;28;20250;-73
2021/04/23 07:03:17;;;;;;;12.18;7.63;;;7.40;93.30;;;;;;5033536;28;20216;-73
2021/04/23 07:05:45;;;;;;;13.65;7.82;;;7.50;94.10;;;;;;5033464;28;20250;-72
2021/04/23 07:08:12;;;;;;;18.85;8.18;;;7.70;93.60;;;;;;5034977;28;20228;-73
2021/04/23 07:10:39;;;;;;;14.98;7.30;;;7.80;92.50;;;;;;5037674;28;20291;-73
2021/04/23 07:13:05;;;;;;;12.35;8.07;;;7.90;92.80;;;;;;5037643;28;20246;-73
2021/04/23 07:15:34;;;;;;;13.20;8.10;;;8.00;91.90;;;;;;5037701;28;20299;-73
2021/04/23 07:18:01;;;;;;;15.40;7.32;;;8.20;91.70;;;;;;5037409;28;20200;-73
2021/04/23 07:20:29;;;;;;;11.40;6.70;;;8.20;91.20;;;;;;5037784;28;20211;-73
2021/04/23 07:22:56;;;;;;;13.45;7.13;;;8.30;91.70;;;;;;5038181;28;20231;-74
2021/04/23 07:25:22;;;;;;;11.48;7.68;;;8.30;90.90;;;;;;5037625;28;20207;-73
2021/04/23 07:27:49;;;;;;;17.02;8.30;;;8.40;91.20;;;;;;5036683;28;20239;-73
2021/04/23 07:30:19;;;;;;;13.02;7.93;;;8.50;90.80;;;;;;5036703;28;20295;-73
2021/04/23 07:32:45;;;;;;;12.40;7.32;;;8.50;88.70;;;;;;5036533;28;20319;-73
2021/04/23 07:35:13;;;;;;;13.13;7.50;;;8.60;89.80;;;;;;5036646;28;20204;-73
2021/04/23 07:37:43;;;;;;;10.18;7.93;;;8.80;89.30;;;;;;5036396;28;20212;-73
2021/04/23 07:40:12;;;;;;;9.07;6.78;;;8.80;86.80;;;;;;5036460;28;20731;-73
2021/04/23 07:42:39;;;;;;;10.98;6.20;;;8.80;85.50;;;;;;5036162;28;20702;-73
2021/04/23 07:45:08;;;;;;;10.93;6.43;;;8.80;85.50;;;;;;5036545;28;20714;-73
2021/04/23 07:47:35;;;;;;;8.95;5.80;;;9.00;85.20;;;;;;5036490;28;20290;-73
2021/04/23 07:50:03;;;;;;;7.40;5.43;;;9.00;85.80;;;;;;5036456;28;20718;-73
2021/04/23 07:52:29;;;;;;;8.57;6.90;;;9.10;85.20;;;;;;5036174;28;20236;-73
2021/04/23 07:54:58;;;;;;;11.75;6.28;;;9.20;83.20;;;;;;5036230;28;20335;-73
2021/04/23 07:57:25;;;;;;;12.05;6.35;;;9.40;83.60;;;;;;5035862;28;20200;-73
2021/04/23 07:59:53;;;;;;;11.52;5.85;;;9.70;82.90;;;;;;5036267;28;20249;-73
2021/04/23 08:02:19;;;;;;;11.23;6.38;;;10.00;81.70;;;;;;5036882;28;20223;-73
2021/04/23 08:04:46;;;;;;;10.20;5.90;;;10.60;79.00;;;;;;5036706;28;20598;-73
2021/04/23 08:07:12;;;;;;;11.85;5.35;;;11.60;73.00;;;;;;5035944;28;20291;-73
2021/04/23 08:09:39;;;;;;;6.20;4.55;;;13.20;69.10;;;;;;5036484;28;20200;-73
2021/04/23 08:12:08;;;;;;;6.82;5.47;;;14.60;62.00;;;;;;5035991;28;20236;-73
2021/04/23 08:14:34;;;;;;;10.80;6.80;;;15.90;57.90;;;;;;5036010;28;20229;-74
2021/04/23 08:17:01;;;;;;;7.28;5.18;;;15.80;53.80;;;;;;5036037;28;20201;-74
2021/04/23 08:19:27;;;;;;;7.95;5.40;;;16.00;53.20;;;;;;5035503;28;20288;-75
2021/04/23 08:21:54;;;;;;;9.93;5.90;;;15.50;53.20;;;;;;5036094;28;20320;-74
2021/04/23 08:24:20;;;;;;;8.07;5.30;;;14.70;53.80;;;;;;5036403;28;20204;-74
2021/04/23 08:26:46;;;;;;;10.98;5.65;;;13.70;54.30;;;;;;5035529;28;20290;-74
2021/04/23 08:29:14;;;;;;;11.07;5.68;;;13.60;56.00;;;;;;5035731;28;20210;-74
2021/04/23 08:31:42;;;;;;;10.80;5.43;;;13.40;56.20;;;;;;5035533;28;20204;-75
2021/04/23 08:34:09;;;;;;;9.10;4.75;;;13.40;56.30;;;;;;5036051;28;20299;-74
2021/04/23 08:36:36;;;;;;;8.88;5.32;;;13.50;56.90;;;;;;5035060;28;20212;-74
2021/04/23 08:39:04;;;;;;;7.05;5.15;;;13.30;57.20;;;;;;5035391;28;20243;-74
2021/04/23 08:41:31;;;;;;;7.47;4.93;;;13.40;57.60;;;;;;5035160;28;20208;-74
2021/04/23 08:43:57;;;;;;;8.48;4.90;;;13.50;57.40;;;;;;5035228;28;20283;-74
2021/04/23 08:46:25;;;;;;;8.48;5.35;;;13.90;56.50;;;;;;5034977;28;20208;-74
2021/04/23 08:48:52;;;;;;;12.32;5.15;;;14.30;55.70;;;;;;5035609;28;20208;-74
2021/04/23 08:51:21;;;;;;;10.98;5.63;;;14.40;53.10;;;;;;5035573;28;20254;-74
2021/04/23 08:53:50;;;;;;;13.20;4.95;;;14.30;54.00;;;;;;5035005;28;20224;-75
2021/04/23 08:56:16;;;;;;;6.18;4.90;;;14.50;54.00;;;;;;5034866;28;20243;-74
2021/04/23 08:58:43;;;;;;;9.20;5.25;;;14.80;53.00;;;;;;5035321;28;20290;-75
2021/04/23 09:01:09;;;;;;;11.70;5.10;;;15.70;50.80;;;;;;5035307;28;20294;-74
2021/04/23 09:03:37;;;;;;;10.00;5.35;;;16.90;51.00;;;;;;5035507;28;20362;-74
2021/04/23 09:06:11;;;;;;;7.57;5.83;;;19.30;48.00;;;;;;5035250;28;20301;-75
2021/04/23 09:08:45;;;;;;;8.83;5.27;;;20.40;42.90;;;;;;5036123;28;20502;-75
2021/04/23 09:11:16;;;;;;;6.50;4.60;;;20.30;41.30;;;;;;5035079;28;20446;-75
2021/04/23 09:13:52;;;;;;;7.67;4.17;;;22.20;40.60;;;;;;5034657;28;20493;-74
2021/04/23 09:16:19;;;;;;;7.10;5.20;;;23.00;38.10;;;;;;5034735;28;20887;-75
2021/04/23 09:18:46;;;;;;;5.90;5.13;;;24.70;35.80;;;;;;5035483;28;20538;-76
2021/04/23 09:21:15;;;;;;;6.33;4.73;;;24.60;33.00;;;;;;5035802;28;20441;-75
2021/04/23 09:23:49;;;;;;;6.97;4.30;;;24.50;33.70;;;;;;5035200;28;20471;-75
2021/04/23 09:26:34;;;;;;;7.07;4.40;;;25.40;34.40;;;;;;5034415;28;20448;-73
2021/04/23 09:29:01;;;;;;;6.03;5.00;;;26.90;31.60;;;;;;5034495;28;20478;-73
2021/04/23 09:31:29;;;;;;;7.40;5.80;;;27.20;28.90;;;;;;5034493;28;20540;-75
2021/04/23 09:33:59;;;;;;;5.07;4.57;;;24.70;30.50;;;;;;5034462;28;20541;-75
2021/04/23 09:36:26;;;;;;;6.63;4.87;;;24.70;32.50;;;;;;5034556;28;20450;-75
2021/04/23 09:39:07;;;;;;;7.17;5.17;;;26.00;32.50;;;;;;5035318;28;20477;-76
2021/04/23 09:41:34;;;;;;;6.77;4.67;;;27.90;31.00;;;;;;5034817;28;20431;-75
2021/04/23 09:44:00;;;;;;;7.80;5.63;;;28.10;29.40;;;;;;5035228;28;20500;-75
2021/04/23 09:46:35;;;;;;;6.20;4.60;;;27.60;28.60;;;;;;5035044;28;20455;-75
2021/04/23 09:49:23;;;;;;;6.90;4.13;;;27.90;28.90;;;;;;5034590;28;20504;-76
2021/04/23 09:51:50;;;;;;;9.37;5.57;;;28.30;29.00;;;;;;5029361;28;20481;-75
2021/04/23 09:54:18;;;;;;;6.77;4.70;;;27.10;28.00;;;;;;5036895;28;20573;-76
2021/04/23 09:56:44;;;;;;;8.17;5.83;;;27.00;29.80;;;;;;5034669;28;20489;-76
2021/04/23 09:59:20;;;;;;;6.10;4.77;;;28.50;28.70;;;;;;5036499;28;20486;-77
2021/04/23 10:01:51;;;;;;;5.10;4.10;;;29.80;27.80;;;;;;5035790;28;22241;-76
2021/04/23 10:04:27;;;;;;;7.00;5.10;;;30.50;27.60;;;;;;5035185;28;20945;-76
2021/04/23 10:07:12;;;;;;;7.47;4.57;;;29.40;26.20;;;;;;5034825;28;20766;-76
2021/04/23 10:09:47;;;;;;;7.80;4.93;;;29.60;25.60;;;;;;5035331;28;20485;-75
2021/04/23 10:12:27;;;;;;;6.90;4.33;;;26.40;27.30;;;;;;5035018;28;20547;-75
2021/04/23 10:14:57;;;;;;;6.47;4.77;;;23.60;29.40;;;;;;5034225;28;20470;-76
2021/04/23 10:17:23;;;;;;;6.00;4.13;;;22.70;33.30;;;;;;5034095;28;20526;-76
2021/04/23 10:19:51;;;;;;;6.70;4.43;;;22.10;32.20;;;;;;5034051;28;20446;-76
2021/04/23 10:22:17;;;;;;;7.90;4.30;;;23.50;32.50;;;;;;5034219;28;20505;-76
2021/04/23 10:24:44;;;;;;;5.53;4.77;;;23.80;32.10;;;;;;5034805;28;20515;-77
2021/04/23 10:27:10;;;;;;;6.50;4.00;;;24.90;31.10;;;;;;5033106;28;20541;-76
2021/04/23 10:29:37;;;;;;;6.90;4.77;;;26.20;29.00;;;;;;5033447;28;20451;-76
2021/04/23 10:32:05;;;;;;;5.63;4.30;;;26.40;29.00;;;;;;5033229;28;20566;-76
2021/04/23 10:34:33;;;;;;;5.80;4.50;;;27.70;28.10;;;;;;5033731;28;20887;-76
2021/04/23 10:37:00;;;;;;;9.77;5.07;;;28.80;27.20;;;;;;5033152;28;20456;-75
2021/04/23 10:39:27;;;;;;;5.33;4.30;;;28.90;27.50;;;;;;5034412;28;20446;-71
2021/04/23 10:41:54;;;;;;;7.00;4.93;;;28.50;26.50;;;;;;5024718;28;20483;-76
2021/04/23 10:44:22;;;;;;;6.37;3.97;;;25.10;28.00;;;;;;5035680;28;20480;-76
2021/04/23 10:46:51;;;;;;;7.73;4.70;;;24.10;28.90;;;;;;5036224;28;20503;-77
2021/04/23 10:49:17;;;;;;;5.60;3.73;;;24.50;30.50;;;;;;5036085;28;20504;-76
2021/04/23 10:51:45;;;;;;;5.63;4.23;;;25.10;29.40;;;;;;5036294;28;20484;-77
2021/04/23 10:54:15;;;;;;;7.43;4.50;;;25.40;29.70;;;;;;5036057;28;20442;-75
2021/04/23 10:56:49;;;;;;;5.30;3.70;;;26.40;28.20;;;;;;5036370;28;20504;-77
2021/04/23 10:59:34;;;;;;;6.70;4.43;;;25.30;27.30;;;;;;5036431;28;20455;-74
2021/04/23 11:02:14;;;;;;;6.43;4.57;;;23.20;29.00;;;;;;5034746;28;20848;-77
2021/04/23 11:04:54;;;;;;;6.63;5.33;;;22.90;31.40;;;;;;5035652;28;20478;-76
2021/04/23 11:07:21;;;;;;;5.17;3.83;;;23.90;31.80;;;;;;5036906;28;20469;-77
2021/04/23 11:09:58;;;;;;;7.77;4.30;;;23.90;30.70;;;;;;5036331;28;20539;-73
2021/04/23 11:12:27;;;;;;;4.90;4.20;;;24.30;30.00;;;;;;5035919;28;20470;-73
2021/04/23 11:15:11;;;;;;;6.03;4.47;;;24.60;28.80;;;;;;5035620;28;20537;-74
2021/04/23 11:17:37;;;;;;;6.30;4.20;;;24.90;29.60;;;;;;5035621;28;20944;-74
2021/04/23 11:20:22;;;;;;;7.37;3.43;;;25.40;29.80;;;;;;5035854;28;20446;-73
2021/04/23 11:22:54;;;;;;;4.57;3.67;;;24.10;27.40;;;;;;5035726;28;20465;-73
2021/04/23 11:25:21;;;;;;;6.60;3.67;;;22.00;29.80;;;;;;5035015;28;20889;-73
2021/04/23 11:28:10;;;;;;;6.50;3.70;;;20.60;30.60;;;;;;5035578;28;20448;-74
2021/04/23 11:31:01;;;;;;;6.85;3.53;;;19.90;33.30;;;;;;5035689;28;20295;-72
2021/04/23 11:33:52;;;;;;;8.55;4.68;;;19.60;34.40;;;;;;5035009;28;20239;-74
2021/04/23 11:36:30;;;;;;;6.38;3.65;;;19.00;34.80;;;;;;5035017;28;20205;-74
2021/04/23 11:38:59;;;;;;;5.25;3.75;;;18.80;34.70;;;;;;5035379;28;20239;-73
2021/04/23 11:41:27;;;;;;;7.55;4.20;;;18.60;34.20;;;;;;5035323;28;20204;-73
2021/04/23 11:43:54;;;;;;;6.10;4.10;;;18.20;34.20;;;;;;5035122;28;20220;-73
2021/04/23 11:46:20;;;;;;;4.18;3.15;;;18.20;33.40;;;;;;5034781;28;20778;-71
2021/04/23 11:48:48;;;;;;;5.05;3.78;;;18.30;33.00;;;;;;5035472;28;20203;-72
2021/04/23 11:51:14;;;;;;;7.97;3.80;;;18.00;33.50;;;;;;5035005;28;20692;-72
2021/04/23 11:53:47;;;;;;;6.50;4.07;;;17.80;34.10;;;;;;5034476;28;20310;-73
2021/04/23 11:56:13;;;;;;;6.05;3.85;;;17.50;34.50;;;;;;5033711;28;20209;-76
2021/04/23 11:58:42;;;;;;;3.17;2.88;;;17.40;35.80;;;;;;5035022;28;20559;-77
2021/04/23 12:01:09;;;;;;;4.18;2.92;;;17.30;31.50;;;;;;5035039;28;20243;-76
2021/04/23 12:03:35;;;;;;;6.60;3.85;;;17.20;32.40;;;;;;5034912;28;20274;-76
2021/04/23 12:06:02;;;;;;;7.85;3.88;;;17.30;34.60;;;;;;5034714;28;20290;-76
2021/04/23 12:08:31;;;;;;;9.02;4.35;;;17.50;34.60;;;;;;5034910;28;20208;-76
2021/04/23 12:10:59;;;;;;;5.60;3.55;;;17.60;35.50;;;;;;5034389;28;20681;-75
2021/04/23 12:13:28;;;;;;;5.70;4.05;;;17.80;36.30;;;;;;5034453;28;20307;-72
2021/04/23 12:15:58;;;;;;;5.65;3.90;;;18.10;35.90;;;;;;5034472;28;20254;-72
2021/04/23 12:18:25;;;;;;;7.18;4.60;;;18.00;35.70;;;;;;5035035;28;20366;-72
2021/04/23 12:20:53;;;;;;;6.80;4.80;;;17.70;34.70;;;;;;5034676;28;20688;-73
2021/04/23 12:23:22;;;;;;;7.65;4.18;;;17.60;36.30;;;;;;5034292;28;20332;-72
2021/04/23 12:25:50;;;;;;;8.07;4.22;;;17.60;34.40;;;;;;5034243;28;20302;-72
2021/04/23 12:28:27;;;;;;;7.18;3.85;;;17.50;33.20;;;;;;5034481;28;20212;-72
2021/04/23 12:30:59;;;;;;;5.97;3.53;;;17.50;34.40;;;;;;5034584;28;20203;-73
2021/04/23 12:33:36;;;;;;;6.05;4.43;;;17.60;33.80;;;;;;5034217;28;20343;-74
2021/04/23 12:36:12;;;;;;;7.10;4.10;;;17.30;34.70;;;;;;5033689;28;20753;-74
2021/04/23 12:38:40;;;;;;;5.57;3.83;;;16.90;36.20;;;;;;5034193;28;20206;-74
2021/04/23 12:41:14;;;;;;;5.70;3.88;;;16.80;36.30;;;;;;5034223;28;20211;-74
2021/04/23 12:43:41;;;;;;;7.07;4.57;;;17.20;37.90;;;;;;5033864;28;20230;-73
2021/04/23 12:46:23;;;;;;;9.63;4.90;;;17.60;37.70;;;;;;5033733;28;20306;-73
2021/04/23 12:48:58;;;;;;;9.13;4.28;;;17.90;37.40;;;;;;5034247;28;20251;-73
2021/04/23 12:51:26;;;;;;;8.32;4.93;;;18.20;36.90;;;;;;5034142;28;20579;-73
2021/04/23 12:53:53;;;;;;;7.35;4.70;;;18.50;37.50;;;;;;5033794;28;20306;-74
2021/04/23 12:56:24;;;;;;;6.18;4.15;;;18.50;37.00;;;;;;5033520;28;20298;-74
2021/04/23 12:58:51;;;;;;;6.88;4.97;;;18.70;37.30;;;;;;5033988;28;20250;-73